sensor_id;sensor_type;location;lat;lon;timestamp;P1;durP1;ratioP1;P2;durP2;ratioP2
77736;SDS011;66903;59.926;30.404;2024-03-23T00:53:59;2.60;;;0.88;;
77736;SDS011;66903;59.926;30.404;2024-03-23T00:59:10;2.70;;;0.80;;
77736;SDS011;66903;59.926;30.404;2024-03-23T01:04:22;1.00;;;0.50;;
77736;SDS011;66903;59.926;30.404;2024-03-23T01:09:33;2.20;;;0.60;;
77736;SDS011;66903;59.926;30.404;2024-03-23T01:14:44;1.42;;;0.60;;
77736;SDS011;66903;59.926;30.404;2024-03-23T01:19:55;2.25;;;0.85;;
77736;SDS011;66903;59.926;30.404;2024-03-23T01:25:06;2.10;;;0.70;;
77736;SDS011;66903;59.926;30.404;2024-03-23T01:30:18;1.52;;;0.68;;
77736;SDS011;66903;59.926;30.404;2024-03-23T01:35:29;3.60;;;0.90;;
77736;SDS011;66903;59.926;30.404;2024-03-23T01:40:39;1.30;;;0.50;;
77736;SDS011;66903;59.926;30.404;2024-03-23T01:45:50;2.53;;;0.73;;
77736;SDS011;66903;59.926;30.404;2024-03-23T01:51:03;1.80;;;0.73;;
77736;SDS011;66903;59.926;30.404;2024-03-23T01:56:15;0.98;;;0.45;;
77736;SDS011;66903;59.926;30.404;2024-03-23T02:01:26;1.92;;;0.63;;
77736;SDS011;66903;59.926;30.404;2024-03-23T02:06:37;1.05;;;0.50;;
77736;SDS011;66903;59.926;30.404;2024-03-23T02:11:48;1.92;;;0.50;;
77736;SDS011;66903;59.926;30.404;2024-03-23T02:16:59;0.43;;;0.30;;
77736;SDS011;66903;59.926;30.404;2024-03-23T02:22:10;1.88;;;0.60;;
77736;SDS011;66903;59.926;30.404;2024-03-23T02:27:21;1.02;;;0.50;;
77736;SDS011;66903;59.926;30.404;2024-03-23T02:32:32;1.45;;;0.60;;
77736;SDS011;66903;59.926;30.404;2024-03-23T02:37:43;0.75;;;0.40;;
77736;SDS011;66903;59.926;30.404;2024-03-23T02:42:57;0.77;;;0.40;;
77736;SDS011;66903;59.926;30.404;2024-03-23T02:48:08;0.77;;;0.32;;
77736;SDS011;66903;59.926;30.404;2024-03-23T02:53:19;2.35;;;0.70;;
77736;SDS011;66903;59.926;30.404;2024-03-23T02:58:30;1.55;;;0.65;;
77736;SDS011;66903;59.926;30.404;2024-03-23T03:03:40;1.08;;;0.55;;
77736;SDS011;66903;59.926;30.404;2024-03-23T03:08:51;1.27;;;0.77;;
77736;SDS011;66903;59.926;30.404;2024-03-23T03:14:03;1.15;;;0.60;;
77736;SDS011;66903;59.926;30.404;2024-03-23T03:19:14;2.10;;;0.52;;
77736;SDS011;66903;59.926;30.404;2024-03-23T03:24:26;1.05;;;0.47;;
77736;SDS011;66903;59.926;30.404;2024-03-23T03:29:37;1.58;;;0.55;;
77736;SDS011;66903;59.926;30.404;2024-03-23T03:34:48;1.75;;;0.63;;
77736;SDS011;66903;59.926;30.404;2024-03-23T03:40:00;1.25;;;0.50;;
77736;SDS011;66903;59.926;30.404;2024-03-23T03:45:11;1.95;;;0.85;;
77736;SDS011;66903;59.926;30.404;2024-03-23T03:50:22;1.23;;;0.50;;
77736;SDS011;66903;59.926;30.404;2024-03-23T03:55:33;2.83;;;0.93;;
77736;SDS011;66903;59.926;30.404;2024-03-23T04:00:44;2.97;;;0.93;;
77736;SDS011;66903;59.926;30.404;2024-03-23T04:05:55;2.17;;;0.82;;
77736;SDS011;66903;59.926;30.404;2024-03-23T04:11:06;2.92;;;1.00;;
77736;SDS011;66903;59.926;30.404;2024-03-23T04:16:24;1.67;;;0.70;;
77736;SDS011;66903;59.926;30.404;2024-03-23T04:21:40;2.22;;;0.70;;
77736;SDS011;66903;59.926;30.404;2024-03-23T04:26:51;1.67;;;0.65;;
77736;SDS011;66903;59.926;30.404;2024-03-23T04:32:02;4.95;;;0.80;;
77736;SDS011;66903;59.926;30.404;2024-03-23T04:37:15;2.95;;;0.80;;
77736;SDS011;66903;59.926;30.404;2024-03-23T04:42:27;2.60;;;0.90;;
77736;SDS011;66903;59.926;30.404;2024-03-23T04:47:38;2.63;;;1.10;;
77736;SDS011;66903;59.926;30.404;2024-03-23T04:52:49;3.85;;;1.30;;
77736;SDS011;66903;59.926;30.404;2024-03-23T04:58:00;5.47;;;2.00;;
77736;SDS011;66903;59.926;30.404;2024-03-23T05:03:11;6.43;;;2.67;;
77736;SDS011;66903;59.926;30.404;2024-03-23T05:08:22;9.27;;;2.75;;
77736;SDS011;66903;59.926;30.404;2024-03-23T05:13:33;6.32;;;2.05;;
77736;SDS011;66903;59.926;30.404;2024-03-23T05:18:44;4.85;;;1.80;;
77736;SDS011;66903;59.926;30.404;2024-03-23T05:23:55;3.42;;;1.50;;
77736;SDS011;66903;59.926;30.404;2024-03-23T05:29:07;4.93;;;1.88;;
77736;SDS011;66903;59.926;30.404;2024-03-23T05:34:21;6.32;;;2.08;;
77736;SDS011;66903;59.926;30.404;2024-03-23T05:39:32;6.32;;;2.10;;
77736;SDS011;66903;59.926;30.404;2024-03-23T05:44:46;5.68;;;2.05;;
77736;SDS011;66903;59.926;30.404;2024-03-23T05:49:58;5.80;;;2.53;;
77736;SDS011;66903;59.926;30.404;2024-03-23T05:55:09;5.93;;;2.38;;
77736;SDS011;66903;59.926;30.404;2024-03-23T06:00:20;6.53;;;2.35;;
77736;SDS011;66903;59.926;30.404;2024-03-23T06:05:31;7.47;;;2.42;;
77736;SDS011;66903;59.926;30.404;2024-03-23T06:10:42;6.32;;;2.10;;
77736;SDS011;66903;59.926;30.404;2024-03-23T06:15:53;8.02;;;2.47;;
77736;SDS011;66903;59.926;30.404;2024-03-23T06:21:04;5.90;;;2.28;;
77736;SDS011;66903;59.926;30.404;2024-03-23T06:26:15;9.13;;;2.25;;
77736;SDS011;66903;59.926;30.404;2024-03-23T06:31:26;6.07;;;1.80;;
77736;SDS011;66903;59.926;30.404;2024-03-23T06:36:38;8.85;;;3.05;;
77736;SDS011;66903;59.926;30.404;2024-03-23T06:41:53;4.28;;;1.55;;
77736;SDS011;66903;59.926;30.404;2024-03-23T06:47:05;6.35;;;2.28;;
77736;SDS011;66903;59.926;30.404;2024-03-23T06:52:16;6.05;;;2.30;;
77736;SDS011;66903;59.926;30.404;2024-03-23T06:57:27;7.07;;;2.33;;
77736;SDS011;66903;59.926;30.404;2024-03-23T07:02:38;5.82;;;2.25;;
77736;SDS011;66903;59.926;30.404;2024-03-23T07:07:49;5.00;;;2.20;;
77736;SDS011;66903;59.926;30.404;2024-03-23T07:13:00;4.93;;;1.83;;
77736;SDS011;66903;59.926;30.404;2024-03-23T07:18:12;3.85;;;1.70;;
77736;SDS011;66903;59.926;30.404;2024-03-23T07:23:23;7.53;;;2.33;;
77736;SDS011;66903;59.926;30.404;2024-03-23T07:28:34;8.27;;;2.22;;
77736;SDS011;66903;59.926;30.404;2024-03-23T07:33:47;3.95;;;1.77;;
77736;SDS011;66903;59.926;30.404;2024-03-23T07:38:59;5.68;;;2.40;;
77736;SDS011;66903;59.926;30.404;2024-03-23T07:44:10;4.68;;;1.77;;
77736;SDS011;66903;59.926;30.404;2024-03-23T07:49:21;6.93;;;2.30;;
77736;SDS011;66903;59.926;30.404;2024-03-23T07:54:32;6.47;;;2.17;;
77736;SDS011;66903;59.926;30.404;2024-03-23T07:59:43;7.30;;;2.65;;
77736;SDS011;66903;59.926;30.404;2024-03-23T08:04:54;4.53;;;1.52;;
77736;SDS011;66903;59.926;30.404;2024-03-23T08:10:06;4.65;;;1.92;;
77736;SDS011;66903;59.926;30.404;2024-03-23T08:15:17;3.60;;;1.35;;
77736;SDS011;66903;59.926;30.404;2024-03-23T08:20:28;6.75;;;1.80;;
77736;SDS011;66903;59.926;30.404;2024-03-23T08:25:40;5.95;;;1.83;;
77736;SDS011;66903;59.926;30.404;2024-03-23T08:30:52;5.30;;;1.35;;
77736;SDS011;66903;59.926;30.404;2024-03-23T08:36:04;4.20;;;1.42;;
77736;SDS011;66903;59.926;30.404;2024-03-23T08:41:17;3.25;;;1.13;;
77736;SDS011;66903;59.926;30.404;2024-03-23T08:46:28;6.55;;;1.25;;
77736;SDS011;66903;59.926;30.404;2024-03-23T08:51:39;3.47;;;1.20;;
77736;SDS011;66903;59.926;30.404;2024-03-23T08:56:49;5.00;;;1.40;;
77736;SDS011;66903;59.926;30.404;2024-03-23T09:02:00;1.80;;;0.82;;
77736;SDS011;66903;59.926;30.404;2024-03-23T09:07:12;4.10;;;1.58;;
77736;SDS011;66903;59.926;30.404;2024-03-23T09:12:23;3.72;;;1.50;;
77736;SDS011;66903;59.926;30.404;2024-03-23T09:17:34;7.53;;;2.42;;
77736;SDS011;66903;59.926;30.404;2024-03-23T09:22:47;3.70;;;1.38;;
77736;SDS011;66903;59.926;30.404;2024-03-23T09:27:59;5.15;;;1.52;;
77736;SDS011;66903;59.926;30.404;2024-03-23T09:33:10;3.67;;;1.60;;
77736;SDS011;66903;59.926;30.404;2024-03-23T09:38:22;4.78;;;1.83;;
77736;SDS011;66903;59.926;30.404;2024-03-23T09:43:34;5.18;;;1.70;;
77736;SDS011;66903;59.926;30.404;2024-03-23T09:48:46;6.78;;;2.30;;
77736;SDS011;66903;59.926;30.404;2024-03-23T09:53:58;4.47;;;1.58;;
77736;SDS011;66903;59.926;30.404;2024-03-23T09:59:09;4.80;;;1.95;;
77736;SDS011;66903;59.926;30.404;2024-03-23T10:04:38;4.00;;;1.52;;
77736;SDS011;66903;59.926;30.404;2024-03-23T10:09:51;5.13;;;1.65;;
77736;SDS011;66903;59.926;30.404;2024-03-23T10:15:02;5.18;;;1.85;;
77736;SDS011;66903;59.926;30.404;2024-03-23T10:20:28;6.65;;;1.45;;
77736;SDS011;66903;59.926;30.404;2024-03-23T10:25:39;4.07;;;1.58;;
77736;SDS011;66903;59.926;30.404;2024-03-23T10:30:50;3.00;;;1.05;;
77736;SDS011;66903;59.926;30.404;2024-03-23T10:36:01;5.78;;;1.95;;
77736;SDS011;66903;59.926;30.404;2024-03-23T10:41:12;3.45;;;1.10;;
77736;SDS011;66903;59.926;30.404;2024-03-23T10:46:24;4.85;;;1.70;;
77736;SDS011;66903;59.926;30.404;2024-03-23T10:51:35;2.60;;;0.63;;
77736;SDS011;66903;59.926;30.404;2024-03-23T10:56:46;2.97;;;1.13;;
77736;SDS011;66903;59.926;30.404;2024-03-23T11:01:58;2.88;;;1.05;;
77736;SDS011;66903;59.926;30.404;2024-03-23T11:07:32;3.70;;;1.30;;
77736;SDS011;66903;59.926;30.404;2024-03-23T11:12:43;2.88;;;1.13;;
77736;SDS011;66903;59.926;30.404;2024-03-23T11:18:02;4.70;;;1.42;;
77736;SDS011;66903;59.926;30.404;2024-03-23T11:23:27;3.70;;;1.25;;
77736;SDS011;66903;59.926;30.404;2024-03-23T11:28:39;2.53;;;1.02;;
77736;SDS011;66903;59.926;30.404;2024-03-23T11:33:50;4.00;;;1.33;;
77736;SDS011;66903;59.926;30.404;2024-03-23T11:39:15;5.30;;;1.55;;
77736;SDS011;66903;59.926;30.404;2024-03-23T11:44:27;3.47;;;1.33;;
77736;SDS011;66903;59.926;30.404;2024-03-23T11:49:38;4.57;;;1.60;;
77736;SDS011;66903;59.926;30.404;2024-03-23T11:54:51;4.03;;;1.77;;
77736;SDS011;66903;59.926;30.404;2024-03-23T12:00:21;6.10;;;1.52;;
77736;SDS011;66903;59.926;30.404;2024-03-23T12:05:33;3.58;;;1.38;;
77736;SDS011;66903;59.926;30.404;2024-03-23T12:10:47;3.75;;;1.38;;
77736;SDS011;66903;59.926;30.404;2024-03-23T12:16:15;4.72;;;1.35;;
77736;SDS011;66903;59.926;30.404;2024-03-23T12:21:27;5.07;;;1.70;;
77736;SDS011;66903;59.926;30.404;2024-03-23T12:26:38;4.15;;;1.50;;
77736;SDS011;66903;59.926;30.404;2024-03-23T12:31:50;8.70;;;1.75;;
77736;SDS011;66903;59.926;30.404;2024-03-23T12:37:02;4.75;;;1.60;;
77736;SDS011;66903;59.926;30.404;2024-03-23T12:42:13;4.70;;;1.83;;
77736;SDS011;66903;59.926;30.404;2024-03-23T12:47:24;3.90;;;1.75;;
77736;SDS011;66903;59.926;30.404;2024-03-23T12:52:35;3.45;;;1.40;;
77736;SDS011;66903;59.926;30.404;2024-03-23T12:57:47;7.35;;;1.70;;
77736;SDS011;66903;59.926;30.404;2024-03-23T13:02:58;5.85;;;1.83;;
77736;SDS011;66903;59.926;30.404;2024-03-23T13:08:09;8.85;;;2.00;;
77736;SDS011;66903;59.926;30.404;2024-03-23T13:13:20;5.47;;;1.92;;
77736;SDS011;66903;59.926;30.404;2024-03-23T13:18:31;7.47;;;2.13;;
77736;SDS011;66903;59.926;30.404;2024-03-23T13:23:46;5.78;;;1.85;;
77736;SDS011;66903;59.926;30.404;2024-03-23T13:28:58;4.63;;;1.42;;
77736;SDS011;66903;59.926;30.404;2024-03-23T13:34:09;4.45;;;1.63;;
77736;SDS011;66903;59.926;30.404;2024-03-23T13:39:20;2.28;;;1.00;;
77736;SDS011;66903;59.926;30.404;2024-03-23T13:44:31;5.43;;;1.83;;
77736;SDS011;66903;59.926;30.404;2024-03-23T13:49:42;3.40;;;1.30;;
77736;SDS011;66903;59.926;30.404;2024-03-23T13:54:53;3.10;;;1.25;;
77736;SDS011;66903;59.926;30.404;2024-03-23T14:00:07;3.97;;;1.90;;
77736;SDS011;66903;59.926;30.404;2024-03-23T14:05:19;3.00;;;1.15;;
77736;SDS011;66903;59.926;30.404;2024-03-23T14:10:29;3.60;;;1.40;;
77736;SDS011;66903;59.926;30.404;2024-03-23T14:15:40;2.22;;;0.73;;
77736;SDS011;66903;59.926;30.404;2024-03-23T14:20:55;4.05;;;1.38;;
77736;SDS011;66903;59.926;30.404;2024-03-23T14:26:11;3.55;;;1.45;;
77736;SDS011;66903;59.926;30.404;2024-03-23T14:31:21;3.55;;;1.42;;
77736;SDS011;66903;59.926;30.404;2024-03-23T14:36:33;3.50;;;1.38;;
77736;SDS011;66903;59.926;30.404;2024-03-23T14:41:44;4.47;;;1.27;;
77736;SDS011;66903;59.926;30.404;2024-03-23T14:46:56;2.70;;;1.13;;
77736;SDS011;66903;59.926;30.404;2024-03-23T14:52:07;4.68;;;1.50;;
77736;SDS011;66903;59.926;30.404;2024-03-23T14:57:19;3.35;;;1.40;;
77736;SDS011;66903;59.926;30.404;2024-03-23T15:02:30;4.40;;;1.05;;
77736;SDS011;66903;59.926;30.404;2024-03-23T15:07:42;3.45;;;1.30;;
77736;SDS011;66903;59.926;30.404;2024-03-23T15:12:53;3.20;;;1.17;;
77736;SDS011;66903;59.926;30.404;2024-03-23T15:18:04;4.90;;;1.77;;
77736;SDS011;66903;59.926;30.404;2024-03-23T15:23:15;5.28;;;1.60;;
77736;SDS011;66903;59.926;30.404;2024-03-23T15:28:26;4.20;;;1.80;;
77736;SDS011;66903;59.926;30.404;2024-03-23T15:33:48;3.03;;;1.05;;
77736;SDS011;66903;59.926;30.404;2024-03-23T15:38:59;5.28;;;1.83;;
77736;SDS011;66903;59.926;30.404;2024-03-23T15:44:10;3.53;;;1.50;;
77736;SDS011;66903;59.926;30.404;2024-03-23T15:49:21;2.95;;;1.25;;
77736;SDS011;66903;59.926;30.404;2024-03-23T15:54:33;4.53;;;1.88;;
77736;SDS011;66903;59.926;30.404;2024-03-23T15:59:43;5.20;;;1.90;;
77736;SDS011;66903;59.926;30.404;2024-03-23T16:04:55;3.83;;;1.48;;
77736;SDS011;66903;59.926;30.404;2024-03-23T16:10:07;7.63;;;2.67;;
77736;SDS011;66903;59.926;30.404;2024-03-23T16:15:19;5.55;;;2.38;;
77736;SDS011;66903;59.926;30.404;2024-03-23T16:20:30;6.13;;;2.28;;
77736;SDS011;66903;59.926;30.404;2024-03-23T16:25:48;3.70;;;1.85;;
77736;SDS011;66903;59.926;30.404;2024-03-23T16:31:07;5.65;;;2.03;;
77736;SDS011;66903;59.926;30.404;2024-03-23T16:36:19;6.95;;;2.38;;
77736;SDS011;66903;59.926;30.404;2024-03-23T16:41:30;6.32;;;1.75;;
77736;SDS011;66903;59.926;30.404;2024-03-23T16:46:41;5.75;;;1.90;;
77736;SDS011;66903;59.926;30.404;2024-03-23T16:51:53;3.85;;;1.52;;
77736;SDS011;66903;59.926;30.404;2024-03-23T16:57:05;4.53;;;1.90;;
77736;SDS011;66903;59.926;30.404;2024-03-23T17:02:15;5.07;;;1.48;;
77736;SDS011;66903;59.926;30.404;2024-03-23T17:07:26;5.40;;;2.20;;
77736;SDS011;66903;59.926;30.404;2024-03-23T17:12:37;5.63;;;1.50;;
77736;SDS011;66903;59.926;30.404;2024-03-23T17:17:49;4.70;;;1.70;;
77736;SDS011;66903;59.926;30.404;2024-03-23T17:23:00;3.13;;;1.23;;
77736;SDS011;66903;59.926;30.404;2024-03-23T17:28:11;5.38;;;1.85;;
77736;SDS011;66903;59.926;30.404;2024-03-23T17:33:23;4.47;;;1.73;;
77736;SDS011;66903;59.926;30.404;2024-03-23T17:38:35;4.97;;;1.88;;
77736;SDS011;66903;59.926;30.404;2024-03-23T17:43:49;3.80;;;1.48;;
77736;SDS011;66903;59.926;30.404;2024-03-23T17:49:00;4.97;;;1.73;;
77736;SDS011;66903;59.926;30.404;2024-03-23T17:54:11;3.45;;;1.23;;
77736;SDS011;66903;59.926;30.404;2024-03-23T17:59:25;4.25;;;1.50;;
77736;SDS011;66903;59.926;30.404;2024-03-23T18:04:36;4.38;;;2.03;;
77736;SDS011;66903;59.926;30.404;2024-03-23T18:09:47;4.97;;;2.22;;
77736;SDS011;66903;59.926;30.404;2024-03-23T18:14:59;9.02;;;2.53;;
77736;SDS011;66903;59.926;30.404;2024-03-23T18:20:11;7.60;;;2.65;;
77736;SDS011;66903;59.926;30.404;2024-03-23T18:25:21;6.25;;;2.47;;
77736;SDS011;66903;59.926;30.404;2024-03-23T18:30:32;5.13;;;1.95;;
77736;SDS011;66903;59.926;30.404;2024-03-23T18:35:48;4.63;;;1.52;;
77736;SDS011;66903;59.926;30.404;2024-03-23T18:41:00;5.93;;;2.03;;
77736;SDS011;66903;59.926;30.404;2024-03-23T18:46:11;7.43;;;1.95;;
77736;SDS011;66903;59.926;30.404;2024-03-23T18:51:22;8.07;;;2.67;;
77736;SDS011;66903;59.926;30.404;2024-03-23T18:56:34;6.95;;;2.42;;
77736;SDS011;66903;59.926;30.404;2024-03-23T19:01:45;7.18;;;2.53;;
77736;SDS011;66903;59.926;30.404;2024-03-23T19:06:56;6.80;;;2.85;;
77736;SDS011;66903;59.926;30.404;2024-03-23T19:12:07;7.05;;;3.05;;
77736;SDS011;66903;59.926;30.404;2024-03-23T19:17:18;10.90;;;3.40;;
77736;SDS011;66903;59.926;30.404;2024-03-23T19:22:29;7.10;;;2.90;;
77736;SDS011;66903;59.926;30.404;2024-03-23T19:27:41;7.65;;;3.25;;
77736;SDS011;66903;59.926;30.404;2024-03-23T19:32:52;7.55;;;2.60;;
77736;SDS011;66903;59.926;30.404;2024-03-23T19:38:06;9.05;;;2.85;;
77736;SDS011;66903;59.926;30.404;2024-03-23T19:43:17;7.55;;;2.88;;
77736;SDS011;66903;59.926;30.404;2024-03-23T19:48:28;10.43;;;4.07;;
77736;SDS011;66903;59.926;30.404;2024-03-23T19:53:39;7.30;;;2.70;;
77736;SDS011;66903;59.926;30.404;2024-03-23T19:58:50;10.63;;;2.83;;
77736;SDS011;66903;59.926;30.404;2024-03-23T20:04:01;8.57;;;3.20;;
77736;SDS011;66903;59.926;30.404;2024-03-23T20:09:14;10.45;;;3.78;;
77736;SDS011;66903;59.926;30.404;2024-03-23T20:14:26;8.18;;;3.65;;
77736;SDS011;66903;59.926;30.404;2024-03-23T20:19:37;9.65;;;3.20;;
77736;SDS011;66903;59.926;30.404;2024-03-23T20:24:48;9.40;;;3.28;;
77736;SDS011;66903;59.926;30.404;2024-03-23T20:30:00;7.40;;;2.80;;
77736;SDS011;66903;59.926;30.404;2024-03-23T20:35:12;9.50;;;3.20;;
77736;SDS011;66903;59.926;30.404;2024-03-23T20:40:23;7.80;;;2.75;;
77736;SDS011;66903;59.926;30.404;2024-03-23T20:45:38;9.85;;;3.28;;
77736;SDS011;66903;59.926;30.404;2024-03-23T20:50:57;9.82;;;3.83;;
77736;SDS011;66903;59.926;30.404;2024-03-23T20:56:09;7.35;;;3.10;;
77736;SDS011;66903;59.926;30.404;2024-03-23T21:01:20;8.02;;;4.10;;
77736;SDS011;66903;59.926;30.404;2024-03-23T21:06:32;10.02;;;3.83;;
77736;SDS011;66903;59.926;30.404;2024-03-23T21:11:43;13.18;;;4.00;;
77736;SDS011;66903;59.926;30.404;2024-03-23T21:16:54;10.45;;;3.17;;
77736;SDS011;66903;59.926;30.404;2024-03-23T21:22:05;9.43;;;3.05;;
77736;SDS011;66903;59.926;30.404;2024-03-23T21:27:16;6.57;;;2.50;;
77736;SDS011;66903;59.926;30.404;2024-03-23T21:32:27;6.13;;;2.40;;
77736;SDS011;66903;59.926;30.404;2024-03-23T21:37:38;8.18;;;3.45;;
77736;SDS011;66903;59.926;30.404;2024-03-23T21:42:50;8.52;;;2.42;;
77736;SDS011;66903;59.926;30.404;2024-03-23T21:48:01;12.23;;;3.08;;
77736;SDS011;66903;59.926;30.404;2024-03-23T21:53:12;5.85;;;2.30;;
77736;SDS011;66903;59.926;30.404;2024-03-23T21:58:24;8.27;;;3.20;;
77736;SDS011;66903;59.926;30.404;2024-03-23T22:03:35;7.43;;;3.03;;
77736;SDS011;66903;59.926;30.404;2024-03-23T22:08:46;7.90;;;2.55;;
77736;SDS011;66903;59.926;30.404;2024-03-23T22:13:57;9.60;;;2.58;;
77736;SDS011;66903;59.926;30.404;2024-03-23T22:19:10;9.70;;;2.65;;
77736;SDS011;66903;59.926;30.404;2024-03-23T22:24:20;12.68;;;3.65;;
77736;SDS011;66903;59.926;30.404;2024-03-23T22:29:32;6.18;;;2.90;;
77736;SDS011;66903;59.926;30.404;2024-03-23T22:34:43;9.48;;;3.08;;
77736;SDS011;66903;59.926;30.404;2024-03-23T22:39:54;6.65;;;3.20;;
77736;SDS011;66903;59.926;30.404;2024-03-23T22:45:05;8.18;;;3.08;;
77736;SDS011;66903;59.926;30.404;2024-03-23T22:50:18;14.90;;;2.83;;
77736;SDS011;66903;59.926;30.404;2024-03-23T22:55:29;6.88;;;2.67;;
77736;SDS011;66903;59.926;30.404;2024-03-23T23:00:40;11.38;;;2.58;;
77736;SDS011;66903;59.926;30.404;2024-03-23T23:06:01;5.53;;;2.08;;
77736;SDS011;66903;59.926;30.404;2024-03-23T23:11:16;11.63;;;2.53;;
77736;SDS011;66903;59.926;30.404;2024-03-23T23:16:27;6.93;;;1.92;;
77736;SDS011;66903;59.926;30.404;2024-03-23T23:21:39;8.32;;;1.92;;
77736;SDS011;66903;59.926;30.404;2024-03-23T23:26:50;6.00;;;2.05;;
77736;SDS011;66903;59.926;30.404;2024-03-23T23:32:03;11.25;;;2.20;;
77736;SDS011;66903;59.926;30.404;2024-03-23T23:37:15;8.48;;;2.20;;
77736;SDS011;66903;59.926;30.404;2024-03-23T23:42:26;10.05;;;2.50;;
77736;SDS011;66903;59.926;30.404;2024-03-23T23:47:37;6.50;;;2.30;;
77736;SDS011;66903;59.926;30.404;2024-03-23T23:52:49;8.23;;;2.42;;
77736;SDS011;66903;59.926;30.404;2024-03-23T23:58:00;9.93;;;2.08;;
